createdAt,value
2022-12-03T00:00:32.277Z,18.63
2022-12-03T00:03:00.550Z,20.73
2022-12-03T00:05:28.794Z,20.83
2022-12-03T00:07:58.351Z,20.67
2022-12-03T00:10:26.518Z,20.07
2022-12-03T00:12:54.802Z,24.73
2022-12-03T00:15:23.042Z,21.60
2022-12-03T00:17:51.194Z,20.70
2022-12-03T00:20:22.236Z,24.83
2022-12-03T00:22:50.809Z,23.03
2022-12-03T00:25:20.417Z,22.17
2022-12-03T00:27:48.737Z,22.73
2022-12-03T00:30:17.259Z,23.80
2022-12-03T00:32:45.407Z,23.00
2022-12-03T00:35:13.832Z,26.03
2022-12-03T00:37:41.962Z,24.90
2022-12-03T00:40:12.266Z,21.73
2022-12-03T00:42:41.969Z,23.77
2022-12-03T00:45:10.950Z,25.83
2022-12-03T00:47:39.153Z,22.00
2022-12-03T00:50:08.530Z,23.77
2022-12-03T00:52:36.947Z,23.70
2022-12-03T00:55:05.801Z,26.07
2022-12-03T00:57:34.376Z,27.37
2022-12-03T01:00:05.793Z,23.50
2022-12-03T01:02:33.900Z,25.97
2022-12-03T01:05:02.576Z,22.50
2022-12-03T01:07:30.812Z,30.53
2022-12-03T01:09:59.160Z,25.27
2022-12-03T01:12:27.279Z,21.13
2022-12-03T01:14:55.664Z,24.83
2022-12-03T01:17:25.354Z,24.07
2022-12-03T01:19:53.499Z,24.63
2022-12-03T01:22:21.619Z,25.20
2022-12-03T01:24:49.913Z,30.57
2022-12-03T01:27:18.191Z,23.97
2022-12-03T01:29:46.311Z,26.40
2022-12-03T01:32:19.632Z,32.17
2022-12-03T01:34:51.338Z,28.17
2022-12-03T01:37:21.497Z,32.37
2022-12-03T01:39:49.649Z,27.20
2022-12-03T01:42:20.734Z,30.03
2022-12-03T01:44:50.028Z,25.47
2022-12-03T01:47:21.056Z,28.43
2022-12-03T01:49:54.527Z,28.77
2022-12-03T01:52:26.483Z,28.37
2022-12-03T01:54:56.883Z,32.23
2022-12-03T01:57:28.448Z,28.27
2022-12-03T02:00:00.736Z,30.57
2022-12-03T02:02:31.286Z,28.57
2022-12-03T02:05:01.901Z,28.17
2022-12-03T02:07:32.138Z,31.20
2022-12-03T02:10:03.070Z,32.93
2022-12-03T02:12:34.712Z,25.87
2022-12-03T02:15:04.054Z,33.30
2022-12-03T02:17:32.897Z,28.20
2022-12-03T02:20:04.033Z,29.77
2022-12-03T02:22:39.140Z,33.90
2022-12-03T02:25:15.489Z,28.83
2022-12-03T02:28:00.392Z,30.37
2022-12-03T02:30:30.887Z,38.17
2022-12-03T02:32:59.556Z,29.35
2022-12-03T02:35:31.147Z,30.93
2022-12-03T02:38:13.381Z,29.70
2022-12-03T02:40:44.799Z,31.47
2022-12-03T02:43:14.774Z,28.60
2022-12-03T02:45:45.543Z,30.10
2022-12-03T02:48:17.732Z,33.30
2022-12-03T02:50:49.353Z,33.17
2022-12-03T02:53:21.263Z,31.33
2022-12-03T02:55:53.028Z,29.17
2022-12-03T02:58:23.019Z,36.07
2022-12-03T03:00:52.367Z,28.77
2022-12-03T03:03:21.737Z,35.23
2022-12-03T03:05:51.229Z,31.33
2022-12-03T03:08:20.861Z,36.83
2022-12-03T03:10:51.037Z,32.33
2022-12-03T03:13:22.080Z,33.70
2022-12-03T03:15:50.536Z,34.63
2022-12-03T03:18:19.534Z,31.50
2022-12-03T03:20:47.714Z,34.23
2022-12-03T03:23:18.190Z,35.23
2022-12-03T03:25:50.560Z,31.90
2022-12-03T03:28:21.143Z,33.77
2022-12-03T03:30:49.709Z,34.40
2022-12-03T03:33:18.302Z,32.73
2022-12-03T03:35:47.475Z,35.03
2022-12-03T03:38:16.027Z,35.50
2022-12-03T03:40:44.662Z,31.10
2022-12-03T03:43:14.026Z,34.93
2022-12-03T03:45:44.114Z,33.97
2022-12-03T03:48:13.666Z,30.33
2022-12-03T03:50:42.130Z,29.20
2022-12-03T03:53:10.642Z,36.03
2022-12-03T03:55:39.505Z,35.70
2022-12-03T03:58:07.819Z,34.63
2022-12-03T04:00:37.319Z,31.00
2022-12-03T04:03:07.586Z,36.07
2022-12-03T04:05:35.772Z,30.73
2022-12-03T04:08:03.953Z,33.27
2022-12-03T04:10:49.789Z,32.50
2022-12-03T04:13:17.960Z,29.30
2022-12-03T04:15:46.262Z,30.83
2022-12-03T04:18:33.245Z,30.57
2022-12-03T04:21:15.258Z,31.23
2022-12-03T04:23:43.358Z,32.93
2022-12-03T04:26:28.838Z,38.50
2022-12-03T04:28:57.119Z,33.10
2022-12-03T04:31:42.839Z,31.23
2022-12-03T04:34:30.085Z,30.83
2022-12-03T04:36:58.302Z,33.07
2022-12-03T04:39:26.479Z,36.30
2022-12-03T04:41:54.628Z,32.27
2022-12-03T04:44:36.145Z,32.97
2022-12-03T04:47:08.027Z,30.23
2022-12-03T04:49:38.953Z,30.00
2022-12-03T04:52:07.781Z,30.30
2022-12-03T04:54:36.167Z,34.60
2022-12-03T04:57:06.331Z,29.23
2022-12-03T04:59:35.096Z,28.67
2022-12-03T05:02:03.764Z,30.07
2022-12-03T05:04:32.365Z,33.03
2022-12-03T05:07:01.906Z,33.87
2022-12-03T05:09:30.058Z,32.00
2022-12-03T05:11:58.480Z,30.93
2022-12-03T05:14:26.640Z,32.37
2022-12-03T05:16:54.881Z,26.10
2022-12-03T05:19:43.328Z,28.00
2022-12-03T05:22:11.869Z,27.73
2022-12-03T05:24:40.150Z,28.33
2022-12-03T05:27:08.317Z,29.03
2022-12-03T05:29:36.435Z,29.27
2022-12-03T05:32:04.866Z,28.93
2022-12-03T05:34:33.127Z,31.33
2022-12-03T05:37:01.286Z,31.93
2022-12-03T05:39:30.836Z,28.47
2022-12-03T05:42:16.262Z,27.67
2022-12-03T05:44:44.469Z,32.13
2022-12-03T05:47:12.676Z,27.47
2022-12-03T05:49:40.840Z,28.90
2022-12-03T05:52:08.972Z,25.23
2022-12-03T05:54:38.475Z,27.77
2022-12-03T05:57:07.025Z,26.20
2022-12-03T05:59:35.323Z,24.90
2022-12-03T06:02:03.666Z,25.67
2022-12-03T06:04:31.891Z,21.50
2022-12-03T06:07:00.027Z,29.60
2022-12-03T06:09:28.141Z,28.53
2022-12-03T06:11:57.979Z,26.40
2022-12-03T06:14:26.215Z,23.17
2022-12-03T06:16:54.557Z,27.80
2022-12-03T06:19:22.697Z,25.10
2022-12-03T06:21:50.868Z,24.50
2022-12-03T06:24:18.992Z,28.07
2022-12-03T06:26:47.166Z,26.10
2022-12-03T06:29:17.002Z,25.43
2022-12-03T06:31:45.255Z,27.90
2022-12-03T06:34:13.486Z,26.30
2022-12-03T06:36:41.637Z,25.43
2022-12-03T06:39:10.384Z,26.93
2022-12-03T06:41:38.608Z,26.70
2022-12-03T06:44:06.929Z,23.60
2022-12-03T06:46:36.986Z,28.13
2022-12-03T06:49:05.405Z,24.20
2022-12-03T06:51:33.580Z,24.37
2022-12-03T06:54:02.459Z,26.77
2022-12-03T06:56:35.838Z,23.50
2022-12-03T06:59:06.103Z,22.67
2022-12-03T07:01:34.472Z,25.03
2022-12-03T07:04:04.127Z,28.00
2022-12-03T07:06:32.339Z,24.63
2022-12-03T07:09:00.502Z,21.37
2022-12-03T07:11:32.293Z,27.27
2022-12-03T07:14:05.602Z,26.40
2022-12-03T07:16:34.474Z,26.37
2022-12-03T07:19:04.959Z,22.10
2022-12-03T07:21:33.249Z,23.67
2022-12-03T07:24:01.414Z,26.70
2022-12-03T07:26:29.593Z,25.57
2022-12-03T07:28:57.699Z,26.53
2022-12-03T07:31:28.937Z,23.77
2022-12-03T07:33:57.124Z,25.20
2022-12-03T07:36:26.669Z,23.90
2022-12-03T07:38:54.761Z,24.60
2022-12-03T07:41:22.939Z,27.10
2022-12-03T07:43:51.265Z,27.93
2022-12-03T07:46:19.423Z,30.40
2022-12-03T07:48:47.587Z,24.83
2022-12-03T07:51:15.809Z,23.50
2022-12-03T07:53:45.414Z,24.00
2022-12-03T07:56:13.631Z,23.13
2022-12-03T07:58:41.797Z,23.20
2022-12-03T08:01:10.343Z,31.93
2022-12-03T08:03:38.776Z,24.17
2022-12-03T08:06:07.221Z,24.70
2022-12-03T08:08:35.564Z,24.67
2022-12-03T08:11:06.184Z,22.63
2022-12-03T08:13:35.493Z,24.10
2022-12-03T08:16:15.193Z,27.43
2022-12-03T08:18:43.437Z,23.87
2022-12-03T08:21:12.925Z,28.10
2022-12-03T08:23:41.347Z,26.10
2022-12-03T08:26:19.755Z,21.83
2022-12-03T08:28:48.035Z,26.10
2022-12-03T08:31:20.515Z,25.80
2022-12-03T08:33:51.182Z,25.20
2022-12-03T08:36:23.829Z,21.80
2022-12-03T08:38:55.738Z,25.47
2022-12-03T08:41:45.619Z,27.13
2022-12-03T08:44:24.649Z,24.70
2022-12-03T08:46:57.596Z,25.23
2022-12-03T08:49:25.793Z,22.50
2022-12-03T08:51:58.325Z,23.30
2022-12-03T08:54:27.854Z,26.15
2022-12-03T08:56:57.525Z,23.23
2022-12-03T08:59:29.346Z,26.40
2022-12-03T09:01:58.953Z,26.40
2022-12-03T09:04:35.707Z,29.03
2022-12-03T09:07:04.123Z,25.00
2022-12-03T09:09:33.724Z,20.00
2022-12-03T09:12:03.414Z,23.63
2022-12-03T09:14:31.776Z,29.57
2022-12-03T09:17:00.435Z,24.83
2022-12-03T09:19:31.039Z,21.07
2022-12-03T09:21:59.366Z,30.40
2022-12-03T09:24:28.471Z,22.27
2022-12-03T09:26:56.869Z,22.23
2022-12-03T09:29:26.434Z,25.87
2022-12-03T09:31:54.581Z,27.65
2022-12-03T09:34:22.854Z,25.03
2022-12-03T09:36:51.070Z,26.07
2022-12-03T09:39:19.216Z,34.07
2022-12-03T09:41:47.802Z,25.67
2022-12-03T09:44:18.106Z,23.97
2022-12-03T09:46:49.234Z,24.23
2022-12-03T09:49:18.730Z,26.33
2022-12-03T09:51:47.601Z,25.83
2022-12-03T09:54:24.015Z,23.10
2022-12-03T09:56:52.469Z,26.70
2022-12-03T09:59:21.706Z,27.37
2022-12-03T10:01:51.715Z,21.57
2022-12-03T10:04:20.840Z,23.70
2022-12-03T10:06:49.541Z,23.07
2022-12-03T10:09:25.107Z,27.63
2022-12-03T10:11:53.713Z,24.10
2022-12-03T10:14:22.231Z,24.83
2022-12-03T10:16:52.355Z,26.63
2022-12-03T10:19:24.309Z,31.00
2022-12-03T10:21:53.143Z,24.17
2022-12-03T10:24:25.590Z,24.50
2022-12-03T10:26:56.534Z,22.97
2022-12-03T10:29:31.562Z,24.37
2022-12-03T10:32:05.415Z,25.90
2022-12-03T10:34:35.825Z,29.77
2022-12-03T10:37:12.716Z,22.70
2022-12-03T10:40:01.185Z,28.30
2022-12-03T10:42:31.971Z,24.07
2022-12-03T10:45:20.492Z,24.07
2022-12-03T10:48:11.606Z,25.83
2022-12-03T10:50:48.293Z,27.13
2022-12-03T10:53:18.168Z,28.00
2022-12-03T10:55:49.557Z,27.97
2022-12-03T10:58:23.789Z,27.00
2022-12-03T11:00:54.563Z,25.33
2022-12-03T11:03:26.729Z,27.40
2022-12-03T11:05:57.548Z,26.00
2022-12-03T11:08:30.569Z,26.93
2022-12-03T11:11:08.569Z,27.30
2022-12-03T11:13:52.936Z,26.00
2022-12-03T11:17:04.392Z,27.73
2022-12-03T11:19:46.831Z,27.00
2022-12-03T11:22:41.741Z,27.60
2022-12-03T11:25:37.937Z,29.87
2022-12-03T11:28:34.056Z,28.10
2022-12-03T11:31:03.735Z,26.70
2022-12-03T11:33:33.665Z,30.50
2022-12-03T11:36:36.433Z,29.07
2022-12-03T11:39:10.053Z,29.50
2022-12-03T11:41:38.850Z,31.20
2022-12-03T11:44:32.911Z,30.27
2022-12-03T11:47:16.302Z,27.87
2022-12-03T11:49:50.102Z,28.37
2022-12-03T11:52:30.353Z,30.87
2022-12-03T11:55:15.029Z,28.37
2022-12-03T11:57:44.430Z,29.47
2022-12-03T12:00:24.840Z,29.70
2022-12-03T12:02:54.846Z,30.63
2022-12-03T12:05:29.850Z,33.27
2022-12-03T12:08:03.759Z,27.63
2022-12-03T12:10:45.427Z,34.03
2022-12-03T12:13:51.040Z,28.30
2022-12-03T12:16:46.056Z,34.13
2022-12-03T12:19:46.456Z,28.77
2022-12-03T12:22:21.959Z,26.63
2022-12-03T12:24:53.385Z,34.60
2022-12-03T12:27:23.775Z,33.33
2022-12-03T12:29:54.850Z,31.60
2022-12-03T12:32:27.084Z,31.47
2022-12-03T12:34:58.852Z,26.93
2022-12-03T12:37:33.596Z,30.60
2022-12-03T12:40:08.105Z,30.50
2022-12-03T12:42:37.753Z,29.93
2022-12-03T12:45:17.834Z,30.20
2022-12-03T12:47:51.172Z,32.50
2022-12-03T12:50:20.729Z,26.60
2022-12-03T12:52:56.361Z,27.60
2022-12-03T12:55:28.792Z,29.37
2022-12-03T12:58:01.583Z,28.10
2022-12-03T13:00:29.924Z,31.37
2022-12-03T13:03:00.815Z,32.90
2022-12-03T13:05:35.874Z,30.30
2022-12-03T13:08:10.134Z,32.50
2022-12-03T13:10:43.325Z,31.80
2022-12-03T13:13:23.845Z,31.90
2022-12-03T13:15:58.431Z,29.20
2022-12-03T13:18:30.701Z,30.73
2022-12-03T13:20:59.185Z,32.07
2022-12-03T13:23:34.368Z,31.67
2022-12-03T13:26:29.477Z,33.03
2022-12-03T13:29:07.410Z,28.60
2022-12-03T13:31:43.520Z,30.47
2022-12-03T13:34:17.831Z,28.23
2022-12-03T13:36:51.922Z,29.20
2022-12-03T13:39:29.940Z,30.83
2022-12-03T13:42:21.036Z,30.55
2022-12-03T13:44:50.816Z,33.23
2022-12-03T13:47:22.165Z,27.20
2022-12-03T13:49:56.776Z,30.83
2022-12-03T13:52:26.993Z,31.43
2022-12-03T13:54:57.160Z,27.50
2022-12-03T13:57:27.008Z,31.40
2022-12-03T13:59:55.389Z,34.80
2022-12-03T14:02:24.031Z,27.20
2022-12-03T14:04:59.831Z,28.97
2022-12-03T14:07:28.773Z,28.53
2022-12-03T14:09:57.318Z,29.20
2022-12-03T14:12:27.017Z,32.73
2022-12-03T14:14:55.334Z,32.30
2022-12-03T14:17:23.436Z,29.93
2022-12-03T14:19:51.889Z,29.10
2022-12-03T14:22:23.327Z,27.67
2022-12-03T14:24:51.585Z,28.50
2022-12-03T14:27:19.748Z,33.40
2022-12-03T14:29:49.316Z,31.30
2022-12-03T14:32:17.714Z,32.67
2022-12-03T14:34:46.067Z,29.33
2022-12-03T14:37:14.243Z,30.50
2022-12-03T14:39:42.532Z,30.07
2022-12-03T14:42:17.074Z,30.50
2022-12-03T14:44:46.504Z,34.53
2022-12-03T14:47:18.515Z,29.17
2022-12-03T14:49:46.849Z,32.10
2022-12-03T14:52:14.973Z,30.43
2022-12-03T14:54:43.642Z,31.87
2022-12-03T14:57:12.816Z,30.50
2022-12-03T14:59:41.352Z,30.80
2022-12-03T15:02:10.107Z,32.53
2022-12-03T15:04:39.945Z,28.43
2022-12-03T15:07:08.107Z,30.83
2022-12-03T15:09:36.536Z,34.70
2022-12-03T15:12:05.307Z,28.97
2022-12-03T15:14:33.665Z,30.60
2022-12-03T15:17:01.875Z,32.80
2022-12-03T15:19:30.078Z,31.87
2022-12-03T15:21:59.586Z,37.60
2022-12-03T15:24:28.036Z,31.53
2022-12-03T15:26:56.206Z,33.33
2022-12-03T15:29:24.771Z,30.10
2022-12-03T15:31:52.948Z,32.20
2022-12-03T15:34:23.034Z,28.03
2022-12-03T15:36:53.041Z,35.03
2022-12-03T15:39:22.646Z,31.60
2022-12-03T15:41:50.950Z,33.93
2022-12-03T15:44:19.163Z,37.00
2022-12-03T15:46:47.440Z,32.20
2022-12-03T15:49:15.703Z,35.03
2022-12-03T15:51:43.851Z,37.00
2022-12-03T15:54:12.448Z,38.63
2022-12-03T15:56:42.066Z,32.23
2022-12-03T15:59:10.202Z,35.20
2022-12-03T16:01:38.415Z,29.90
2022-12-03T16:04:06.922Z,38.93
2022-12-03T16:06:35.121Z,34.27
2022-12-03T16:09:03.300Z,31.60
2022-12-03T16:11:31.540Z,35.60
2022-12-03T16:14:01.213Z,32.50
2022-12-03T16:16:29.539Z,36.63
2022-12-03T16:18:57.737Z,36.87
2022-12-03T16:21:27.176Z,33.53
2022-12-03T16:23:55.994Z,36.30
2022-12-03T16:26:24.737Z,38.07
2022-12-03T16:28:52.872Z,34.07
2022-12-03T16:31:22.487Z,35.87
2022-12-03T16:33:50.861Z,35.70
2022-12-03T16:36:18.999Z,32.40
2022-12-03T16:38:47.196Z,35.57
2022-12-03T16:41:15.349Z,35.07
2022-12-03T16:43:46.060Z,37.60
2022-12-03T16:46:26.183Z,36.83
2022-12-03T16:48:58.713Z,34.10
2022-12-03T16:51:28.113Z,38.50
2022-12-03T16:53:56.337Z,34.40
2022-12-03T16:56:24.563Z,33.10
2022-12-03T16:58:52.766Z,36.13
2022-12-03T17:01:23.560Z,36.47
2022-12-03T17:03:51.852Z,38.80
2022-12-03T17:06:21.403Z,34.97
2022-12-03T17:08:50.255Z,34.87
2022-12-03T17:11:18.965Z,32.07
2022-12-03T17:13:47.242Z,31.90
2022-12-03T17:16:15.475Z,34.13
2022-12-03T17:18:43.830Z,34.00
2022-12-03T17:21:12.050Z,31.97
2022-12-03T17:23:41.632Z,36.37
2022-12-03T17:26:09.742Z,40.47
2022-12-03T17:28:37.926Z,35.95
2022-12-03T17:31:06.348Z,34.73
2022-12-03T17:33:34.475Z,33.23
2022-12-03T17:36:02.710Z,36.70
2022-12-03T17:38:37.169Z,32.43
2022-12-03T17:41:08.799Z,35.57
2022-12-03T17:43:36.944Z,34.97
2022-12-03T17:46:06.589Z,34.17
2022-12-03T17:48:35.569Z,43.80
2022-12-03T17:51:03.715Z,34.80
2022-12-03T17:53:31.889Z,33.43
2022-12-03T17:56:00.024Z,35.53
2022-12-03T17:58:29.779Z,29.27
2022-12-03T18:01:02.398Z,30.73
2022-12-03T18:03:31.428Z,37.20
2022-12-03T18:05:59.601Z,30.63
2022-12-03T18:08:27.797Z,32.90
2022-12-03T18:10:55.940Z,34.33
2022-12-03T18:13:24.122Z,30.97
2022-12-03T18:15:53.675Z,37.40
2022-12-03T18:18:21.870Z,35.33
2022-12-03T18:20:50.053Z,28.93
2022-12-03T18:23:18.253Z,39.03
2022-12-03T18:25:46.373Z,30.07
2022-12-03T18:28:14.620Z,30.33
2022-12-03T18:30:47.500Z,33.27
2022-12-03T18:33:21.256Z,30.20
2022-12-03T18:35:49.533Z,30.37
2022-12-03T18:38:19.069Z,34.83
2022-12-03T18:40:48.312Z,36.23
2022-12-03T18:43:17.614Z,26.60
2022-12-03T18:45:45.746Z,29.43
2022-12-03T18:48:15.176Z,28.67
2022-12-03T18:50:45.149Z,30.53
2022-12-03T18:53:14.902Z,28.60
2022-12-03T18:55:44.663Z,31.23
2022-12-03T18:58:13.168Z,31.97
2022-12-03T19:00:42.442Z,30.73
2022-12-03T19:03:11.765Z,29.80
2022-12-03T19:05:40.030Z,29.50
2022-12-03T19:08:14.757Z,28.57
2022-12-03T19:10:44.171Z,28.57
2022-12-03T19:13:13.125Z,30.67
2022-12-03T19:15:42.035Z,30.77
2022-12-03T19:18:10.341Z,31.20
2022-12-03T19:20:41.519Z,30.43
2022-12-03T19:23:11.749Z,31.17
2022-12-03T19:25:40.128Z,31.47
2022-12-03T19:28:08.755Z,27.40
2022-12-03T19:30:37.322Z,32.50
2022-12-03T19:33:05.718Z,31.57
2022-12-03T19:35:40.596Z,30.67
2022-12-03T19:38:10.389Z,32.10
2022-12-03T19:40:39.330Z,28.47
2022-12-03T19:43:07.784Z,28.90
2022-12-03T19:45:37.103Z,31.30
2022-12-03T19:48:06.146Z,26.63
2022-12-03T19:50:34.936Z,26.77
2022-12-03T19:53:03.244Z,27.80
2022-12-03T19:55:36.770Z,29.77
2022-12-03T19:58:04.909Z,23.23
2022-12-03T20:00:33.018Z,27.90
2022-12-03T20:03:01.325Z,30.93
2022-12-03T20:05:33.262Z,28.60
2022-12-03T20:08:01.728Z,27.93
2022-12-03T20:10:29.965Z,24.00
2022-12-03T20:12:59.544Z,26.33
2022-12-03T20:15:28.280Z,23.77
2022-12-03T20:17:56.539Z,27.00
2022-12-03T20:20:24.721Z,32.60
2022-12-03T20:22:52.833Z,23.40
2022-12-03T20:25:21.012Z,24.87
2022-12-03T20:27:49.162Z,26.27
2022-12-03T20:30:19.000Z,32.23
2022-12-03T20:32:47.267Z,21.60
2022-12-03T20:35:15.652Z,29.77
2022-12-03T20:37:43.784Z,23.47
2022-12-03T20:40:12.652Z,24.83
2022-12-03T20:42:40.908Z,22.03
2022-12-03T20:45:10.160Z,23.30
2022-12-03T20:47:39.670Z,24.73
2022-12-03T20:50:08.842Z,23.10
2022-12-03T20:52:37.001Z,27.73
2022-12-03T20:55:05.620Z,21.07
2022-12-03T20:57:33.990Z,23.37
2022-12-03T21:00:02.383Z,22.93
2022-12-03T21:02:30.555Z,24.23
2022-12-03T21:05:00.174Z,23.77
2022-12-03T21:07:28.419Z,25.30
2022-12-03T21:09:56.796Z,20.63
2022-12-03T21:12:25.197Z,24.50
2022-12-03T21:14:53.340Z,23.20
2022-12-03T21:17:24.626Z,19.67
2022-12-03T21:19:53.392Z,24.83
2022-12-03T21:22:23.236Z,22.90
2022-12-03T21:24:51.404Z,18.60
2022-12-03T21:27:21.889Z,19.73
2022-12-03T21:29:50.369Z,18.77
2022-12-03T21:32:18.623Z,17.60
2022-12-03T21:34:46.788Z,19.45
2022-12-03T21:37:14.971Z,15.53
2022-12-03T21:39:44.546Z,18.07
2022-12-03T21:42:34.251Z,15.20
2022-12-03T21:45:01.098Z,16.13
2022-12-03T21:47:35.135Z,13.80
2022-12-03T21:50:06.477Z,17.20
2022-12-03T21:52:35.048Z,15.90
2022-12-03T21:55:04.652Z,18.17
2022-12-03T21:57:32.755Z,19.53
2022-12-03T22:00:00.918Z,16.40
2022-12-03T22:02:29.136Z,15.10
2022-12-03T22:04:57.743Z,16.70
2022-12-03T22:07:26.325Z,16.10
2022-12-03T22:09:54.745Z,17.77
2022-12-03T22:12:25.767Z,16.57
2022-12-03T22:14:57.038Z,19.20
2022-12-03T22:17:25.939Z,17.33
2022-12-03T22:19:54.465Z,15.43
2022-12-03T22:22:23.039Z,16.80
2022-12-03T22:24:51.465Z,15.80
2022-12-03T22:27:19.647Z,17.20
2022-12-03T22:29:49.163Z,15.63
2022-12-03T22:32:17.418Z,15.80
2022-12-03T22:34:45.667Z,15.23
2022-12-03T22:37:13.918Z,15.57
2022-12-03T22:39:42.428Z,16.77
2022-12-03T22:42:10.730Z,15.87
2022-12-03T22:44:38.928Z,17.67
2022-12-03T22:47:08.490Z,15.73
2022-12-03T22:49:36.673Z,19.00
2022-12-03T22:52:05.036Z,15.90
2022-12-03T22:54:33.240Z,15.80
2022-12-03T22:57:01.439Z,16.60
2022-12-03T22:59:29.663Z,17.07
2022-12-03T23:01:57.824Z,18.10
2022-12-03T23:04:27.478Z,15.17
2022-12-03T23:06:55.669Z,14.50
2022-12-03T23:09:23.807Z,14.93
2022-12-03T23:11:51.944Z,16.57
2022-12-03T23:14:23.193Z,19.80
2022-12-03T23:16:51.374Z,18.60
2022-12-03T23:19:19.902Z,19.83
2022-12-03T23:21:49.453Z,16.40
2022-12-03T23:24:17.630Z,17.33
2022-12-03T23:26:45.880Z,16.40
2022-12-03T23:29:14.005Z,15.63
2022-12-03T23:31:42.301Z,15.23
2022-12-03T23:34:10.818Z,16.67
2022-12-03T23:36:39.021Z,14.50
2022-12-03T23:39:08.832Z,16.07
2022-12-03T23:41:37.004Z,17.77
2022-12-03T23:44:05.191Z,16.30
2022-12-03T23:46:33.426Z,16.90
2022-12-03T23:49:01.684Z,17.23
2022-12-03T23:51:29.833Z,15.80
2022-12-03T23:53:58.034Z,19.33
2022-12-03T23:56:29.579Z,16.27
2022-12-03T23:58:58.403Z,17.10
